sensor_id;sensor_type;location;lat;lon;timestamp;pressure;altitude;pressure_sealevel;temperature;humidity
58622;BME280;44389;51.578;5.456;2022-12-17T00:01:47;102142.13;;;-1.76;100.00
58622;BME280;44389;51.578;5.456;2022-12-17T00:04:30;102143.94;;;-1.75;100.00
58622;BME280;44389;51.578;5.456;2022-12-17T00:07:14;102142.75;;;-1.70;100.00
58622;BME280;44389;51.578;5.456;2022-12-17T00:09:58;102140.97;;;-1.71;100.00
58622;BME280;44389;51.578;5.456;2022-12-17T00:12:45;102150.50;;;-1.68;100.00
58622;BME280;44389;51.578;5.456;2022-12-17T00:15:29;102154.97;;;-1.66;100.00
58622;BME280;44389;51.578;5.456;2022-12-17T00:18:13;102146.50;;;-1.66;100.00
58622;BME280;44389;51.578;5.456;2022-12-17T00:20:59;102146.50;;;-1.66;100.00
58622;BME280;44389;51.578;5.456;2022-12-17T00:23:43;102144.09;;;-1.64;100.00
58622;BME280;44389;51.578;5.456;2022-12-17T00:26:27;102150.97;;;-1.63;100.00
58622;BME280;44389;51.578;5.456;2022-12-17T00:29:11;102161.81;;;-1.64;100.00
58622;BME280;44389;51.578;5.456;2022-12-17T00:31:55;102157.47;;;-1.66;100.00
58622;BME280;44389;51.578;5.456;2022-12-17T00:34:39;102153.16;;;-1.67;100.00
58622;BME280;44389;51.578;5.456;2022-12-17T00:37:23;102151.69;;;-1.64;100.00
58622;BME280;44389;51.578;5.456;2022-12-17T00:40:07;102164.63;;;-1.61;100.00
58622;BME280;44389;51.578;5.456;2022-12-17T00:43:02;102161.81;;;-1.64;100.00
58622;BME280;44389;51.578;5.456;2022-12-17T00:45:47;102161.81;;;-1.64;100.00
58622;BME280;44389;51.578;5.456;2022-12-17T00:48:31;102157.34;;;-1.67;100.00
58622;BME280;44389;51.578;5.456;2022-12-17T00:51:15;102162.53;;;-1.66;100.00
58622;BME280;44389;51.578;5.456;2022-12-17T00:53:59;102156.16;;;-1.62;100.00
58622;BME280;44389;51.578;5.456;2022-12-17T00:56:43;102165.97;;;-1.65;100.00
58622;BME280;44389;51.578;5.456;2022-12-17T00:59:27;102170.13;;;-1.66;100.00
58622;BME280;44389;51.578;5.456;2022-12-17T01:02:11;102175.19;;;-1.66;100.00
58622;BME280;44389;51.578;5.456;2022-12-17T01:04:55;102173.38;;;-1.67;100.00
58622;BME280;44389;51.578;5.456;2022-12-17T01:07:39;102179.34;;;-1.66;100.00
58622;BME280;44389;51.578;5.456;2022-12-17T01:10:22;102171.03;;;-1.65;100.00
58622;BME280;44389;51.578;5.456;2022-12-17T01:13:06;102180.25;;;-1.66;100.00
58622;BME280;44389;51.578;5.456;2022-12-17T01:15:50;102181.72;;;-1.68;100.00
58622;BME280;44389;51.578;5.456;2022-12-17T01:18:34;102181.72;;;-1.68;100.00
58622;BME280;44389;51.578;5.456;2022-12-17T01:21:18;102186.03;;;-1.67;100.00
58622;BME280;44389;51.578;5.456;2022-12-17T01:24:02;102191.84;;;-1.68;100.00
58622;BME280;44389;51.578;5.456;2022-12-17T01:26:46;102182.75;;;-1.66;100.00
58622;BME280;44389;51.578;5.456;2022-12-17T01:29:30;102189.31;;;-1.68;100.00
58622;BME280;44389;51.578;5.456;2022-12-17T01:32:14;102190.78;;;-1.70;100.00
58622;BME280;44389;51.578;5.456;2022-12-17T01:34:58;102195.09;;;-1.69;100.00
58622;BME280;44389;51.578;5.456;2022-12-17T01:37:42;102191.50;;;-1.71;100.00
58622;BME280;44389;51.578;5.456;2022-12-17T01:40:26;102190.06;;;-1.69;100.00
58622;BME280;44389;51.578;5.456;2022-12-17T01:43:11;102199.84;;;-1.72;100.00
58622;BME280;44389;51.578;5.456;2022-12-17T01:45:55;102200.59;;;-1.73;100.00
58622;BME280;44389;51.578;5.456;2022-12-17T01:48:43;102211.44;;;-1.74;100.00
58622;BME280;44389;51.578;5.456;2022-12-17T01:51:27;102211.78;;;-1.62;100.00
58622;BME280;44389;51.578;5.456;2022-12-17T01:54:13;102219.59;;;-1.76;100.00
58622;BME280;44389;51.578;5.456;2022-12-17T01:56:58;102207.56;;;-1.79;100.00
58622;BME280;44389;51.578;5.456;2022-12-17T01:59:49;102207.25;;;-1.82;100.00
58622;BME280;44389;51.578;5.456;2022-12-17T02:02:35;102206.19;;;-1.84;100.00
58622;BME280;44389;51.578;5.456;2022-12-17T02:05:22;102214.34;;;-1.87;100.00
58622;BME280;44389;51.578;5.456;2022-12-17T02:08:17;102218.84;;;-1.84;100.00
58622;BME280;44389;51.578;5.456;2022-12-17T02:14:16;102223.59;;;-1.87;100.00
58622;BME280;44389;51.578;5.456;2022-12-17T02:17:17;102221.66;;;-1.81;100.00
58622;BME280;44389;51.578;5.456;2022-12-17T02:23:11;102224.41;;;-1.95;100.00
58622;BME280;44389;51.578;5.456;2022-12-17T02:26:03;102225.56;;;-2.01;100.00
58622;BME280;44389;51.578;5.456;2022-12-17T02:28:52;102230.69;;;-1.92;100.00
58622;BME280;44389;51.578;5.456;2022-12-17T02:31:39;102235.38;;;-2.04;100.00
58622;BME280;44389;51.578;5.456;2022-12-17T02:34:24;102229.41;;;-2.04;100.00
58622;BME280;44389;51.578;5.456;2022-12-17T02:37:07;102224.66;;;-2.10;100.00
58622;BME280;44389;51.578;5.456;2022-12-17T02:39:51;102224.00;;;-2.16;100.00
58622;BME280;44389;51.578;5.456;2022-12-17T02:42:35;102231.50;;;-2.09;100.00
58622;BME280;44389;51.578;5.456;2022-12-17T02:45:19;102225.16;;;-2.21;100.00
58622;BME280;44389;51.578;5.456;2022-12-17T02:48:05;102236.84;;;-2.30;100.00
58622;BME280;44389;51.578;5.456;2022-12-17T02:50:50;102242.63;;;-2.32;100.00
58622;BME280;44389;51.578;5.456;2022-12-17T02:53:41;102236.69;;;-2.32;100.00
58622;BME280;44389;51.578;5.456;2022-12-17T02:56:25;102240.31;;;-2.21;100.00
58622;BME280;44389;51.578;5.456;2022-12-17T02:59:09;102231.78;;;-2.30;100.00
58622;BME280;44389;51.578;5.456;2022-12-17T03:01:53;102239.94;;;-2.33;100.00
58622;BME280;44389;51.578;5.456;2022-12-17T03:04:37;102241.81;;;-2.23;100.00
58622;BME280;44389;51.578;5.456;2022-12-17T03:07:21;102239.38;;;-2.30;100.00
58622;BME280;44389;51.578;5.456;2022-12-17T03:10:05;102247.53;;;-2.33;100.00
58622;BME280;44389;51.578;5.456;2022-12-17T03:12:49;102243.03;;;-2.36;100.00
58622;BME280;44389;51.578;5.456;2022-12-17T03:15:33;102247.03;;;-2.38;100.00
58622;BME280;44389;51.578;5.456;2022-12-17T03:18:17;102258.19;;;-2.36;100.00
58622;BME280;44389;51.578;5.456;2022-12-17T03:21:02;102259.84;;;-2.36;100.00
58622;BME280;44389;51.578;5.456;2022-12-17T03:23:46;102261.16;;;-2.40;100.00
58622;BME280;44389;51.578;5.456;2022-12-17T03:26:30;102261.88;;;-2.41;100.00
58622;BME280;44389;51.578;5.456;2022-12-17T03:29:14;102266.91;;;-2.41;100.00
58622;BME280;44389;51.578;5.456;2022-12-17T03:31:58;102273.44;;;-2.43;100.00
58622;BME280;44389;51.578;5.456;2022-12-17T03:34:42;102268.94;;;-2.45;100.00
58622;BME280;44389;51.578;5.456;2022-12-17T03:37:26;102261.22;;;-2.47;100.00
58622;BME280;44389;51.578;5.456;2022-12-17T03:40:10;102273.94;;;-2.38;100.00
58622;BME280;44389;51.578;5.456;2022-12-17T03:42:54;102262.28;;;-2.45;100.00
58622;BME280;44389;51.578;5.456;2022-12-17T03:45:38;102267.19;;;-2.46;100.00
58622;BME280;44389;51.578;5.456;2022-12-17T03:48:22;102263.44;;;-2.50;100.00
58622;BME280;44389;51.578;5.456;2022-12-17T03:51:06;102266.91;;;-2.41;100.00
58622;BME280;44389;51.578;5.456;2022-12-17T03:53:50;102260.91;;;-2.50;100.00
58622;BME280;44389;51.578;5.456;2022-12-17T03:56:34;102261.16;;;-2.56;100.00
58622;BME280;44389;51.578;5.456;2022-12-17T03:59:18;102260.34;;;-2.63;100.00
58622;BME280;44389;51.578;5.456;2022-12-17T04:02:02;102258.72;;;-2.63;100.00
58622;BME280;44389;51.578;5.456;2022-12-17T04:04:46;102267.34;;;-2.61;100.00
58622;BME280;44389;51.578;5.456;2022-12-17T04:07:30;102275.09;;;-2.59;100.00
58622;BME280;44389;51.578;5.456;2022-12-17T04:10:14;102276.13;;;-2.57;100.00
58622;BME280;44389;51.578;5.456;2022-12-17T04:12:58;102280.16;;;-2.59;100.00
58622;BME280;44389;51.578;5.456;2022-12-17T04:15:42;102280.03;;;-2.52;100.00
58622;BME280;44389;51.578;5.456;2022-12-17T04:18:26;102283.72;;;-2.57;100.00
58622;BME280;44389;51.578;5.456;2022-12-17T04:21:10;102282.97;;;-2.56;100.00
58622;BME280;44389;51.578;5.456;2022-12-17T04:23:54;102292.19;;;-2.57;100.00
58622;BME280;44389;51.578;5.456;2022-12-17T04:26:38;102295.44;;;-2.58;100.00
58622;BME280;44389;51.578;5.456;2022-12-17T04:29:22;102299.44;;;-2.60;100.00
58622;BME280;44389;51.578;5.456;2022-12-17T04:32:06;102294.38;;;-2.60;100.00
58622;BME280;44389;51.578;5.456;2022-12-17T04:34:50;102305.38;;;-2.59;100.00
58622;BME280;44389;51.578;5.456;2022-12-17T04:37:34;102305.63;;;-2.65;100.00
58622;BME280;44389;51.578;5.456;2022-12-17T04:40:18;102313.03;;;-2.67;100.00
58622;BME280;44389;51.578;5.456;2022-12-17T04:43:10;102311.22;;;-2.68;100.00
58622;BME280;44389;51.578;5.456;2022-12-17T04:45:55;102305.53;;;-2.74;100.00
58622;BME280;44389;51.578;5.456;2022-12-17T04:48:39;102303.75;;;-2.75;100.00
58622;BME280;44389;51.578;5.456;2022-12-17T04:51:23;102306.34;;;-2.82;100.00
58622;BME280;44389;51.578;5.456;2022-12-17T04:54:07;102314.63;;;-2.83;100.00
58622;BME280;44389;51.578;5.456;2022-12-17T04:56:51;102315.47;;;-2.75;100.00
58622;BME280;44389;51.578;5.456;2022-12-17T04:59:35;102312.06;;;-2.76;100.00
58622;BME280;44389;51.578;5.456;2022-12-17T05:02:19;102316.69;;;-2.88;100.00
58622;BME280;44389;51.578;5.456;2022-12-17T05:05:04;102325.88;;;-2.88;100.00
58622;BME280;44389;51.578;5.456;2022-12-17T05:07:55;102329.06;;;-2.82;100.00
58622;BME280;44389;51.578;5.456;2022-12-17T05:10:39;102328.75;;;-2.85;100.00
58622;BME280;44389;51.578;5.456;2022-12-17T05:13:23;102314.63;;;-2.83;100.00
58622;BME280;44389;51.578;5.456;2022-12-17T05:16:07;102321.50;;;-2.82;100.00
58622;BME280;44389;51.578;5.456;2022-12-17T05:18:51;102315.88;;;-2.79;100.00
58622;BME280;44389;51.578;5.456;2022-12-17T05:21:35;102315.31;;;-2.77;100.00
58622;BME280;44389;51.578;5.456;2022-12-17T05:24:19;102311.34;;;-2.75;100.00
58622;BME280;44389;51.578;5.456;2022-12-17T05:27:03;102319.22;;;-2.72;100.00
58622;BME280;44389;51.578;5.456;2022-12-17T05:29:47;102315.06;;;-2.71;100.00
58622;BME280;44389;51.578;5.456;2022-12-17T05:32:31;102311.81;;;-2.70;100.00
58622;BME280;44389;51.578;5.456;2022-12-17T05:35:15;102305.88;;;-2.71;100.00
58622;BME280;44389;51.578;5.456;2022-12-17T05:38:03;102316.28;;;-2.68;100.00
58622;BME280;44389;51.578;5.456;2022-12-17T05:40:48;102319.88;;;-2.66;100.00
58622;BME280;44389;51.578;5.456;2022-12-17T05:43:32;102327.59;;;-2.64;100.00
58622;BME280;44389;51.578;5.456;2022-12-17T05:46:15;102331.59;;;-2.66;100.00
58622;BME280;44389;51.578;5.456;2022-12-17T05:48:59;102347.78;;;-2.64;100.00
58622;BME280;44389;51.578;5.456;2022-12-17T05:51:43;102340.72;;;-2.59;100.00
58622;BME280;44389;51.578;5.456;2022-12-17T05:54:27;102334.66;;;-2.69;100.00
58622;BME280;44389;51.578;5.456;2022-12-17T05:57:11;102327.50;;;-2.73;100.00
58622;BME280;44389;51.578;5.456;2022-12-17T05:59:55;102328.59;;;-2.71;100.00
58622;BME280;44389;51.578;5.456;2022-12-17T06:02:39;102325.16;;;-2.71;100.00
58622;BME280;44389;51.578;5.456;2022-12-17T06:05:23;102335.34;;;-2.62;100.00
58622;BME280;44389;51.578;5.456;2022-12-17T06:08:07;102340.78;;;-2.67;100.00
58622;BME280;44389;51.578;5.456;2022-12-17T06:10:52;102338.28;;;-2.67;100.00
58622;BME280;44389;51.578;5.456;2022-12-17T06:13:36;102340.06;;;-2.66;100.00
58622;BME280;44389;51.578;5.456;2022-12-17T06:16:20;102334.09;;;-2.66;100.00
58622;BME280;44389;51.578;5.456;2022-12-17T06:19:03;102341.53;;;-2.68;100.00
58622;BME280;44389;51.578;5.456;2022-12-17T06:21:49;102341.53;;;-2.68;100.00
58622;BME280;44389;51.578;5.456;2022-12-17T06:24:32;102349.25;;;-2.66;100.00
58622;BME280;44389;51.578;5.456;2022-12-17T06:27:16;102352.69;;;-2.66;100.00
58622;BME280;44389;51.578;5.456;2022-12-17T06:30:00;102361.97;;;-2.57;100.00
58622;BME280;44389;51.578;5.456;2022-12-17T06:32:45;102359.69;;;-2.63;100.00
58622;BME280;44389;51.578;5.456;2022-12-17T06:35:29;102354.63;;;-2.63;100.00
58622;BME280;44389;51.578;5.456;2022-12-17T06:38:12;102354.06;;;-2.60;100.00
58622;BME280;44389;51.578;5.456;2022-12-17T06:40:59;102364.31;;;-2.59;100.00
58622;BME280;44389;51.578;5.456;2022-12-17T06:43:44;102355.94;;;-2.51;100.00
58622;BME280;44389;51.578;5.456;2022-12-17T06:46:27;102356.19;;;-2.56;100.00
58622;BME280;44389;51.578;5.456;2022-12-17T06:49:12;102364.50;;;-2.57;100.00
58622;BME280;44389;51.578;5.456;2022-12-17T06:51:55;102372.06;;;-2.57;100.00
58622;BME280;44389;51.578;5.456;2022-12-17T06:54:39;102366.69;;;-2.60;100.00
58622;BME280;44389;51.578;5.456;2022-12-17T06:57:23;102370.75;;;-2.54;100.00
58622;BME280;44389;51.578;5.456;2022-12-17T07:00:08;102376.06;;;-2.59;100.00
58622;BME280;44389;51.578;5.456;2022-12-17T07:02:56;102374.94;;;-2.54;100.00
58622;BME280;44389;51.578;5.456;2022-12-17T07:05:39;102379.06;;;-2.55;100.00
58622;BME280;44389;51.578;5.456;2022-12-17T07:08:23;102385.50;;;-2.66;100.00
58622;BME280;44389;51.578;5.456;2022-12-17T07:11:07;102390.53;;;-2.66;100.00
58622;BME280;44389;51.578;5.456;2022-12-17T07:13:51;102398.94;;;-2.58;100.00
58622;BME280;44389;51.578;5.456;2022-12-17T07:16:35;102400.75;;;-2.57;100.00
58622;BME280;44389;51.578;5.456;2022-12-17T07:19:19;102412.53;;;-2.65;100.00
58622;BME280;44389;51.578;5.456;2022-12-17T07:22:03;102412.53;;;-2.65;100.00
58622;BME280;44389;51.578;5.456;2022-12-17T07:24:47;102413.41;;;-2.64;100.00
58622;BME280;44389;51.578;5.456;2022-12-17T07:27:31;102425.06;;;-2.57;100.00
58622;BME280;44389;51.578;5.456;2022-12-17T07:30:15;102422.94;;;-2.61;100.00
58622;BME280;44389;51.578;5.456;2022-12-17T07:33:01;102419.34;;;-2.63;100.00
58622;BME280;44389;51.578;5.456;2022-12-17T07:35:44;102423.34;;;-2.66;100.00
58622;BME280;44389;51.578;5.456;2022-12-17T07:38:28;102428.31;;;-2.58;100.00
58622;BME280;44389;51.578;5.456;2022-12-17T07:41:12;102429.28;;;-2.65;100.00
58622;BME280;44389;51.578;5.456;2022-12-17T07:43:56;102425.16;;;-2.65;100.00
58622;BME280;44389;51.578;5.456;2022-12-17T07:46:40;102426.75;;;-2.65;100.00
58622;BME280;44389;51.578;5.456;2022-12-17T07:49:24;102435.06;;;-2.66;100.00
58622;BME280;44389;51.578;5.456;2022-12-17T07:52:08;102435.25;;;-2.65;100.00
58622;BME280;44389;51.578;5.456;2022-12-17T07:54:52;102452.56;;;-2.68;100.00
58622;BME280;44389;51.578;5.456;2022-12-17T07:57:36;102447.88;;;-2.65;100.00
58622;BME280;44389;51.578;5.456;2022-12-17T08:00:19;102454.31;;;-2.59;100.00
58622;BME280;44389;51.578;5.456;2022-12-17T08:03:04;102468.94;;;-2.64;100.00
58622;BME280;44389;51.578;5.456;2022-12-17T08:05:47;102469.50;;;-2.67;100.00
58622;BME280;44389;51.578;5.456;2022-12-17T08:08:32;102478.63;;;-2.60;100.00
58622;BME280;44389;51.578;5.456;2022-12-17T08:11:16;102474.97;;;-2.71;100.00
58622;BME280;44389;51.578;5.456;2022-12-17T08:14:00;102470.63;;;-2.72;100.00
58622;BME280;44389;51.578;5.456;2022-12-17T08:16:44;102484.34;;;-2.70;100.00
58622;BME280;44389;51.578;5.456;2022-12-17T08:19:28;102478.38;;;-2.70;100.00
58622;BME280;44389;51.578;5.456;2022-12-17T08:22:12;102486.06;;;-2.61;100.00
58622;BME280;44389;51.578;5.456;2022-12-17T08:24:56;102493.63;;;-2.61;100.00
58622;BME280;44389;51.578;5.456;2022-12-17T08:27:40;102492.63;;;-2.71;100.00
58622;BME280;44389;51.578;5.456;2022-12-17T08:30:24;102492.53;;;-2.63;100.00
58622;BME280;44389;51.578;5.456;2022-12-17T08:33:07;102491.53;;;-2.73;100.00
58622;BME280;44389;51.578;5.456;2022-12-17T08:35:55;102488.69;;;-2.76;100.00
58622;BME280;44389;51.578;5.456;2022-12-17T08:38:41;102493.75;;;-2.76;100.00
58622;BME280;44389;51.578;5.456;2022-12-17T08:41:26;102502.03;;;-2.77;100.00
58622;BME280;44389;51.578;5.456;2022-12-17T08:44:10;102495.19;;;-2.78;100.00
58622;BME280;44389;51.578;5.456;2022-12-17T08:46:55;102494.88;;;-2.81;100.00
58622;BME280;44389;51.578;5.456;2022-12-17T08:49:39;102493.41;;;-2.79;100.00
58622;BME280;44389;51.578;5.456;2022-12-17T08:52:23;102492.50;;;-2.79;100.00
58622;BME280;44389;51.578;5.456;2022-12-17T08:55:07;102507.66;;;-2.79;100.00
58622;BME280;44389;51.578;5.456;2022-12-17T08:57:56;102508.53;;;-2.79;100.00
58622;BME280;44389;51.578;5.456;2022-12-17T09:00:40;102498.69;;;-2.85;100.00
58622;BME280;44389;51.578;5.456;2022-12-17T09:03:25;102508.78;;;-2.85;100.00
58622;BME280;44389;51.578;5.456;2022-12-17T09:06:09;102508.25;;;-2.89;100.00
58622;BME280;44389;51.578;5.456;2022-12-17T09:08:53;102515.50;;;-2.92;100.00
58622;BME280;44389;51.578;5.456;2022-12-17T09:11:37;102500.03;;;-2.95;100.00
58622;BME280;44389;51.578;5.456;2022-12-17T09:14:21;102512.28;;;-2.99;100.00
58622;BME280;44389;51.578;5.456;2022-12-17T09:17:05;102502.56;;;-2.95;100.00
58622;BME280;44389;51.578;5.456;2022-12-17T09:19:49;102516.59;;;-2.98;100.00
58622;BME280;44389;51.578;5.456;2022-12-17T09:22:33;102525.59;;;-2.92;100.00
58622;BME280;44389;51.578;5.456;2022-12-17T09:25:17;102525.59;;;-2.92;100.00
58622;BME280;44389;51.578;5.456;2022-12-17T09:28:01;102532.19;;;-2.86;100.00
58622;BME280;44389;51.578;5.456;2022-12-17T09:30:45;102531.63;;;-2.83;100.00
58622;BME280;44389;51.578;5.456;2022-12-17T09:33:29;102541.34;;;-2.79;100.00
58622;BME280;44389;51.578;5.456;2022-12-17T09:36:13;102544.53;;;-2.73;100.00
58622;BME280;44389;51.578;5.456;2022-12-17T09:38:57;102545.66;;;-2.78;100.00
58622;BME280;44389;51.578;5.456;2022-12-17T09:42:01;102551.63;;;-2.77;100.00
58622;BME280;44389;51.578;5.456;2022-12-17T09:45:02;102551.06;;;-2.75;100.00
58622;BME280;44389;51.578;5.456;2022-12-17T09:48:12;102555.19;;;-2.75;100.00
58622;BME280;44389;51.578;5.456;2022-12-17T09:51:01;102552.84;;;-2.74;100.00
58622;BME280;44389;51.578;5.456;2022-12-17T09:53:48;102553.38;;;-2.69;100.00
58622;BME280;44389;51.578;5.456;2022-12-17T09:56:32;102549.00;;;-2.63;100.00
58622;BME280;44389;51.578;5.456;2022-12-17T09:59:30;102552.63;;;-2.68;100.00
58622;BME280;44389;51.578;5.456;2022-12-17T10:02:24;102564.34;;;-2.69;100.00
58622;BME280;44389;51.578;5.456;2022-12-17T10:05:20;102556.03;;;-2.68;100.00
58622;BME280;44389;51.578;5.456;2022-12-17T10:08:06;102558.19;;;-2.63;100.00
58622;BME280;44389;51.578;5.456;2022-12-17T10:10:53;102555.06;;;-2.54;100.00
58622;BME280;44389;51.578;5.456;2022-12-17T10:13:37;102557.25;;;-2.57;100.00
58622;BME280;44389;51.578;5.456;2022-12-17T10:16:32;102559.13;;;-2.47;100.00
58622;BME280;44389;51.578;5.456;2022-12-17T10:19:35;102558.47;;;-2.53;100.00
58622;BME280;44389;51.578;5.456;2022-12-17T10:22:20;102558.13;;;-2.56;100.00
58622;BME280;44389;51.578;5.456;2022-12-17T10:25:08;102554.53;;;-2.58;100.00
58622;BME280;44389;51.578;5.456;2022-12-17T10:28:01;102556.16;;;-2.59;100.00
58622;BME280;44389;51.578;5.456;2022-12-17T10:30:46;102555.06;;;-2.54;100.00
58622;BME280;44389;51.578;5.456;2022-12-17T10:33:36;102554.81;;;-2.48;100.00
58622;BME280;44389;51.578;5.456;2022-12-17T10:36:21;102552.66;;;-2.45;100.00
58622;BME280;44389;51.578;5.456;2022-12-17T10:39:23;102550.03;;;-2.38;100.00
58622;BME280;44389;51.578;5.456;2022-12-17T10:42:26;102570.25;;;-2.38;100.00
58622;BME280;44389;51.578;5.456;2022-12-17T10:48:25;102561.38;;;-2.34;100.00
58622;BME280;44389;51.578;5.456;2022-12-17T10:51:36;102558.97;;;-2.25;100.00
58622;BME280;44389;51.578;5.456;2022-12-17T10:54:29;102557.25;;;-2.34;100.00
58622;BME280;44389;51.578;5.456;2022-12-17T10:57:23;102560.13;;;-2.38;100.00
58622;BME280;44389;51.578;5.456;2022-12-17T11:00:20;102561.31;;;-2.27;100.00
58622;BME280;44389;51.578;5.456;2022-12-17T11:03:04;102567.38;;;-2.18;100.00
58622;BME280;44389;51.578;5.456;2022-12-17T11:05:50;102565.41;;;-2.20;100.00
58622;BME280;44389;51.578;5.456;2022-12-17T11:08:36;102561.72;;;-2.31;100.00
58622;BME280;44389;51.578;5.456;2022-12-17T11:11:22;102571.31;;;-2.36;100.00
58622;BME280;44389;51.578;5.456;2022-12-17T11:14:08;102574.09;;;-2.41;100.00
58622;BME280;44389;51.578;5.456;2022-12-17T11:16:54;102562.34;;;-2.41;100.00
58622;BME280;44389;51.578;5.456;2022-12-17T11:19:56;102564.91;;;-2.48;100.00
58622;BME280;44389;51.578;5.456;2022-12-17T11:22:47;102565.31;;;-2.52;100.00
58622;BME280;44389;51.578;5.456;2022-12-17T11:25:53;102567.44;;;-2.48;100.00
58622;BME280;44389;51.578;5.456;2022-12-17T11:28:38;102550.84;;;-2.46;100.00
58622;BME280;44389;51.578;5.456;2022-12-17T11:40:54;102570.50;;;-2.27;100.00
58622;BME280;44389;51.578;5.456;2022-12-17T11:43:50;102568.03;;;-2.11;100.00
58622;BME280;44389;51.578;5.456;2022-12-17T11:46:54;102561.91;;;-2.13;100.00
58622;BME280;44389;51.578;5.456;2022-12-17T11:50:02;102555.84;;;-2.00;100.00
58622;BME280;44389;51.578;5.456;2022-12-17T11:53:14;102554.84;;;-2.09;100.00
58622;BME280;44389;51.578;5.456;2022-12-17T11:59:06;102548.88;;;-2.25;100.00
58622;BME280;44389;51.578;5.456;2022-12-17T12:02:04;102553.44;;;-2.14;100.00
58622;BME280;44389;51.578;5.456;2022-12-17T12:08:25;102562.88;;;-2.20;100.00
58622;BME280;44389;51.578;5.456;2022-12-17T12:11:23;102560.34;;;-2.20;100.00
58622;BME280;44389;51.578;5.456;2022-12-17T12:23:42;102537.69;;;-2.27;100.00
58622;BME280;44389;51.578;5.456;2022-12-17T12:26:47;102537.31;;;-2.23;100.00
58622;BME280;44389;51.578;5.456;2022-12-17T12:32:49;102544.59;;;-2.10;100.00
58622;BME280;44389;51.578;5.456;2022-12-17T12:35:36;102541.22;;;-2.18;100.00
58622;BME280;44389;51.578;5.456;2022-12-17T12:38:28;102539.59;;;-2.18;100.00
58622;BME280;44389;51.578;5.456;2022-12-17T12:44:51;102528.50;;;-2.27;100.00
58622;BME280;44389;51.578;5.456;2022-12-17T12:48:00;102522.06;;;-2.16;100.00
58622;BME280;44389;51.578;5.456;2022-12-17T12:51:24;102527.09;;;-2.32;100.00
58622;BME280;44389;51.578;5.456;2022-12-17T12:57:27;102530.41;;;-2.40;100.00
58622;BME280;44389;51.578;5.456;2022-12-17T13:00:31;102524.47;;;-2.41;100.00
58622;BME280;44389;51.578;5.456;2022-12-17T13:03:30;102525.88;;;-2.36;100.00
58622;BME280;44389;51.578;5.456;2022-12-17T13:14:32;102533.56;;;-2.50;100.00
58622;BME280;44389;51.578;5.456;2022-12-17T13:17:03;102541.97;;;-2.66;100.00
58622;BME280;44389;51.578;5.456;2022-12-17T13:19:37;102535.56;;;-2.78;100.00
58622;BME280;44389;51.578;5.456;2022-12-17T13:24:35;102547.22;;;-2.94;100.00
58622;BME280;44389;51.578;5.456;2022-12-17T13:27:02;102533.88;;;-2.93;100.00
58622;BME280;44389;51.578;5.456;2022-12-17T13:29:31;102542.16;;;-2.94;100.00
58622;BME280;44389;51.578;5.456;2022-12-17T13:43:01;102523.34;;;-2.82;100.00
58622;BME280;44389;51.578;5.456;2022-12-17T13:45:26;102525.19;;;-2.88;100.00
58622;BME280;44389;51.578;5.456;2022-12-17T13:47:56;102530.47;;;-2.94;100.00
58622;BME280;44389;51.578;5.456;2022-12-17T13:50:26;102532.47;;;-2.99;100.00
58622;BME280;44389;51.578;5.456;2022-12-17T13:52:52;102530.41;;;-2.87;100.00
58622;BME280;44389;51.578;5.456;2022-12-17T13:55:23;102529.81;;;-3.07;100.00
58622;BME280;44389;51.578;5.456;2022-12-17T13:57:50;102531.75;;;-2.98;100.00
58622;BME280;44389;51.578;5.456;2022-12-17T14:00:23;102537.03;;;-3.03;100.00
58622;BME280;44389;51.578;5.456;2022-12-17T14:02:49;102532.81;;;-3.26;100.00
58622;BME280;44389;51.578;5.456;2022-12-17T14:05:34;102534.78;;;-3.31;100.00
58622;BME280;44389;51.578;5.456;2022-12-17T14:08:03;102536.28;;;-3.33;100.00
58622;BME280;44389;51.578;5.456;2022-12-17T14:10:31;102532.31;;;-3.38;100.00
58622;BME280;44389;51.578;5.456;2022-12-17T14:13:14;102533.03;;;-3.32;100.00
58622;BME280;44389;51.578;5.456;2022-12-17T14:15:48;102527.13;;;-3.39;100.00
58622;BME280;44389;51.578;5.456;2022-12-17T14:18:16;102524.72;;;-3.31;100.00
58622;BME280;44389;51.578;5.456;2022-12-17T14:20:42;102536.59;;;-3.29;100.00
58622;BME280;44389;51.578;5.456;2022-12-17T14:23:20;102537.56;;;-3.43;100.00
58622;BME280;44389;51.578;5.456;2022-12-17T14:25:48;102551.09;;;-3.50;100.00
58622;BME280;44389;51.578;5.456;2022-12-17T14:28:32;102548.75;;;-3.49;100.00
58622;BME280;44389;51.578;5.456;2022-12-17T14:33:34;102546.78;;;-3.51;100.00
58622;BME280;44389;51.578;5.456;2022-12-17T14:36:02;102550.44;;;-3.56;100.00
58622;BME280;44389;51.578;5.456;2022-12-17T14:38:29;102544.94;;;-3.45;100.00
58622;BME280;44389;51.578;5.456;2022-12-17T14:41:00;102545.88;;;-3.52;100.00
58622;BME280;44389;51.578;5.456;2022-12-17T14:43:54;102554.00;;;-3.54;100.00
58622;BME280;44389;51.578;5.456;2022-12-17T14:46:20;102552.94;;;-3.56;100.00
58622;BME280;44389;51.578;5.456;2022-12-17T14:48:53;102545.38;;;-3.56;100.00
58622;BME280;44389;51.578;5.456;2022-12-17T14:51:42;102548.06;;;-3.55;100.00
58622;BME280;44389;51.578;5.456;2022-12-17T14:56:50;102551.47;;;-3.54;100.00
58622;BME280;44389;51.578;5.456;2022-12-17T14:59:36;102567.47;;;-3.47;100.00
58622;BME280;44389;51.578;5.456;2022-12-17T15:04:35;102565.34;;;-3.58;100.00
58622;BME280;44389;51.578;5.456;2022-12-17T15:07:01;102568.06;;;-3.64;100.00
58622;BME280;44389;51.578;5.456;2022-12-17T15:09:26;102566.28;;;-3.65;100.00
58622;BME280;44389;51.578;5.456;2022-12-17T15:11:51;102573.13;;;-3.71;100.00
58622;BME280;44389;51.578;5.456;2022-12-17T15:14:17;102570.63;;;-3.78;100.00
58622;BME280;44389;51.578;5.456;2022-12-17T15:16:42;102577.81;;;-3.81;100.00
58622;BME280;44389;51.578;5.456;2022-12-17T15:19:08;102574.25;;;-3.83;100.00
58622;BME280;44389;51.578;5.456;2022-12-17T15:21:33;102591.31;;;-3.73;100.00
58622;BME280;44389;51.578;5.456;2022-12-17T15:23:59;102588.28;;;-3.85;100.00